Time,TemperatureF,DewpointF,PressureIn,WindDirection,WindDirectionDegrees,WindSpeedMPH,WindSpeedGustMPH,Humidity,HourlyPrecipIn,Conditions,Clouds,dailyrainin,SoftwareType,DateUTC
2013-02-14 00:00:00,33.0,32.0,-100.00,North,0,3.0,6.0,95,-99.99,,,-99.99,,2013-02-14 05:00:00,
2013-02-14 00:22:00,33.0,32.0,-100.00,North,0,3.0,6.0,95,-99.99,,,-99.99,,2013-02-14 05:22:00,
2013-02-14 00:32:00,33.0,32.0,-100.00,North,0,3.0,6.0,95,-99.99,,,-99.99,,2013-02-14 05:32:00,
2013-02-14 00:42:00,33.0,32.0,-100.00,North,0,3.0,6.0,95,-99.99,,,-99.99,,2013-02-14 05:42:00,
2013-02-14 00:52:00,33.0,32.0,-100.00,North,0,3.0,6.0,95,-99.99,,,-99.99,,2013-02-14 05:52:00,
2013-02-14 01:00:00,34.0,32.0,-100.00,North,354,2.0,9.0,94,-99.99,,,-99.99,,2013-02-14 06:00:00,
2013-02-14 01:32:00,34.0,32.0,-100.00,North,354,2.0,9.0,94,-99.99,,,-99.99,,2013-02-14 06:32:00,
2013-02-14 01:42:00,34.0,32.0,-100.00,North,354,2.0,9.0,94,-99.99,,,-99.99,,2013-02-14 06:42:00,
2013-02-14 01:52:00,34.0,32.0,-100.00,North,354,2.0,9.0,94,-99.99,,,-99.99,,2013-02-14 06:52:00,
2013-02-14 02:00:00,35.0,33.0,-100.00,North,354,2.0,10.0,94,-99.99,,,-99.99,,2013-02-14 07:00:00,
2013-02-14 02:21:00,35.0,33.0,-100.00,North,354,2.0,10.0,94,-99.99,,,-99.99,,2013-02-14 07:21:00,
2013-02-14 02:32:00,35.0,33.0,-100.00,North,354,2.0,10.0,94,-99.99,,,-99.99,,2013-02-14 07:32:00,
2013-02-14 02:42:00,35.0,33.0,-100.00,North,354,2.0,10.0,94,-99.99,,,-99.99,,2013-02-14 07:42:00,
2013-02-14 02:52:00,35.0,33.0,-100.00,North,354,2.0,10.0,94,-99.99,,,-99.99,,2013-02-14 07:52:00,
2013-02-14 03:00:00,35.0,33.0,-100.00,NW,322,3.0,10.0,92,-99.99,,,-99.99,,2013-02-14 08:00:00,
2013-02-14 03:22:00,35.0,33.0,-100.00,NW,322,3.0,10.0,92,-99.99,,,-99.99,,2013-02-14 08:22:00,
2013-02-14 03:32:00,35.0,33.0,-100.00,NW,322,3.0,10.0,92,-99.99,,,-99.99,,2013-02-14 08:32:00,
2013-02-14 03:43:00,35.0,33.0,-100.00,NW,322,3.0,10.0,92,-99.99,,,-99.99,,2013-02-14 08:43:00,
2013-02-14 03:52:00,35.0,33.0,-100.00,NW,322,3.0,10.0,92,-99.99,,,-99.99,,2013-02-14 08:52:00,
2013-02-14 04:00:00,34.0,32.0,-100.00,NW,325,4.0,8.0,92,-99.99,,,-99.99,,2013-02-14 09:00:00,
2013-02-14 04:21:00,34.0,32.0,-100.00,NW,325,4.0,8.0,92,-99.99,,,-99.99,,2013-02-14 09:21:00,
2013-02-14 04:32:00,34.0,32.0,-100.00,NW,325,4.0,8.0,92,-99.99,,,-99.99,,2013-02-14 09:32:00,
2013-02-14 04:42:00,34.0,32.0,-100.00,NW,325,4.0,8.0,92,-99.99,,,-99.99,,2013-02-14 09:42:00,
2013-02-14 04:52:00,34.0,32.0,-100.00,NW,325,4.0,8.0,92,-99.99,,,-99.99,,2013-02-14 09:52:00,
2013-02-14 05:00:00,34.0,31.0,-100.00,NW,312,2.0,8.0,91,-99.99,,,-99.99,,2013-02-14 10:00:00,
2013-02-14 05:22:00,34.0,31.0,-100.00,NW,312,2.0,8.0,91,-99.99,,,-99.99,,2013-02-14 10:22:00,
2013-02-14 05:32:00,34.0,31.0,-100.00,NW,312,2.0,8.0,91,-99.99,,,-99.99,,2013-02-14 10:32:00,
2013-02-14 05:42:00,34.0,31.0,-100.00,NW,312,2.0,8.0,91,-99.99,,,-99.99,,2013-02-14 10:42:00,
2013-02-14 05:52:00,34.0,31.0,-100.00,NW,312,2.0,8.0,91,-99.99,,,-99.99,,2013-02-14 10:52:00,
2013-02-14 06:00:00,32.0,30.0,-100.00,WNW,284,2.0,4.0,92,-99.99,,,-99.99,,2013-02-14 11:00:00,
2013-02-14 06:32:00,32.0,30.0,-100.00,WNW,284,2.0,4.0,92,-99.99,,,-99.99,,2013-02-14 11:32:00,
2013-02-14 06:42:00,32.0,30.0,-100.00,WNW,284,2.0,4.0,92,-99.99,,,-99.99,,2013-02-14 11:42:00,
2013-02-14 06:52:00,32.0,30.0,-100.00,WNW,284,2.0,4.0,92,-99.99,,,-99.99,,2013-02-14 11:52:00,
2013-02-14 07:00:00,32.0,30.0,-100.00,West,277,5.0,5.0,94,-99.99,,,-99.99,,2013-02-14 12:00:00,
2013-02-14 07:22:00,32.0,30.0,-100.00,West,277,5.0,5.0,94,-99.99,,,-99.99,,2013-02-14 12:22:00,
2013-02-14 07:32:00,32.0,30.0,-100.00,West,277,5.0,5.0,94,-99.99,,,-99.99,,2013-02-14 12:32:00,
2013-02-14 07:42:00,32.0,30.0,-100.00,West,277,5.0,5.0,94,-99.99,,,-99.99,,2013-02-14 12:42:00,
2013-02-14 07:53:00,32.0,30.0,-100.00,West,277,5.0,5.0,94,-99.99,,,-99.99,,2013-02-14 12:53:00,
2013-02-14 08:00:00,34.0,32.0,-100.00,NW,311,2.0,5.0,91,-99.99,,,-99.99,,2013-02-14 13:00:00,
2013-02-14 08:21:00,34.0,32.0,-100.00,NW,311,2.0,5.0,91,-99.99,,,-99.99,,2013-02-14 13:21:00,
2013-02-14 08:32:00,34.0,32.0,-100.00,NW,311,2.0,5.0,91,-99.99,,,-99.99,,2013-02-14 13:32:00,
2013-02-14 08:42:00,34.0,32.0,-100.00,NW,311,2.0,5.0,91,-99.99,,,-99.99,,2013-02-14 13:42:00,
2013-02-14 08:52:00,34.0,32.0,-100.00,NW,311,2.0,5.0,91,-99.99,,,-99.99,,2013-02-14 13:52:00,
2013-02-14 09:00:00,37.0,33.0,-100.00,NW,314,7.0,9.0,83,-99.99,,,-99.99,,2013-02-14 14:00:00,
2013-02-14 09:22:00,37.0,33.0,-100.00,NW,314,7.0,9.0,83,-99.99,,,-99.99,,2013-02-14 14:22:00,
2013-02-14 09:32:00,37.0,33.0,-100.00,NW,314,7.0,9.0,83,-99.99,,,-99.99,,2013-02-14 14:32:00,
2013-02-14 09:42:00,37.0,33.0,-100.00,NW,314,7.0,9.0,83,-99.99,,,-99.99,,2013-02-14 14:42:00,
2013-02-14 09:52:00,37.0,33.0,-100.00,NW,314,7.0,9.0,83,-99.99,,,-99.99,,2013-02-14 14:52:00,
2013-02-14 10:00:00,39.0,31.0,-100.00,North,351,6.0,11.0,73,-99.99,,,-99.99,,2013-02-14 15:00:00,
2013-02-14 10:22:00,39.0,31.0,-100.00,North,351,6.0,11.0,73,-99.99,,,-99.99,,2013-02-14 15:22:00,
2013-02-14 10:32:00,39.0,31.0,-100.00,North,351,6.0,11.0,73,-99.99,,,-99.99,,2013-02-14 15:32:00,
2013-02-14 10:42:00,39.0,31.0,-100.00,North,351,6.0,11.0,73,-99.99,,,-99.99,,2013-02-14 15:42:00,
2013-02-14 10:52:00,39.0,31.0,-100.00,North,351,6.0,11.0,73,-99.99,,,-99.99,,2013-02-14 15:52:00,
2013-02-14 12:00:00,43.0,29.0,-100.00,NNE,26,7.0,8.0,58,-99.99,,,-99.99,,2013-02-14 17:00:00,
2013-02-14 12:32:00,43.0,29.0,-100.00,NNE,26,7.0,8.0,58,-99.99,,,-99.99,,2013-02-14 17:32:00,
2013-02-14 12:42:00,43.0,29.0,-100.00,NNE,26,7.0,8.0,58,-99.99,,,-99.99,,2013-02-14 17:42:00,
2013-02-14 12:52:00,43.0,29.0,-100.00,NNE,26,7.0,8.0,58,-99.99,,,-99.99,,2013-02-14 17:52:00,
2013-02-14 13:00:00,43.0,29.0,-100.00,West,279,3.0,10.0,59,-99.99,,,-99.99,,2013-02-14 18:00:00,
2013-02-14 13:23:00,43.0,29.0,-100.00,West,279,3.0,10.0,59,-99.99,,,-99.99,,2013-02-14 18:23:00,
2013-02-14 13:32:00,43.0,29.0,-100.00,West,279,3.0,10.0,59,-99.99,,,-99.99,,2013-02-14 18:32:00,
2013-02-14 13:42:00,43.0,29.0,-100.00,West,279,3.0,10.0,59,-99.99,,,-99.99,,2013-02-14 18:42:00,
2013-02-14 13:52:00,43.0,29.0,-100.00,West,279,3.0,10.0,59,-99.99,,,-99.99,,2013-02-14 18:52:00,
2013-02-14 14:00:00,42.0,29.0,-100.00,SE,128,5.0,10.0,58,-99.99,,,-99.99,,2013-02-14 19:00:00,
2013-02-14 14:22:00,42.0,29.0,-100.00,SE,128,5.0,10.0,58,-99.99,,,-99.99,,2013-02-14 19:22:00,
2013-02-14 14:32:00,42.0,29.0,-100.00,SE,128,5.0,10.0,58,-99.99,,,-99.99,,2013-02-14 19:32:00,
2013-02-14 14:42:00,42.0,29.0,-100.00,SE,128,5.0,10.0,58,-99.99,,,-99.99,,2013-02-14 19:42:00,
2013-02-14 14:52:00,42.0,29.0,-100.00,SE,128,5.0,10.0,58,-99.99,,,-99.99,,2013-02-14 19:52:00,
2013-02-14 15:00:00,43.0,34.0,-100.00,SSE,159,11.0,13.0,71,-99.99,,,-99.99,,2013-02-14 20:00:00,
2013-02-14 15:22:00,43.0,34.0,-100.00,SSE,159,11.0,13.0,71,-99.99,,,-99.99,,2013-02-14 20:22:00,
2013-02-14 15:32:00,43.0,34.0,-100.00,SSE,159,11.0,13.0,71,-99.99,,,-99.99,,2013-02-14 20:32:00,
2013-02-14 15:42:00,43.0,34.0,-100.00,SSE,159,11.0,13.0,71,-99.99,,,-99.99,,2013-02-14 20:42:00,
2013-02-14 15:52:00,43.0,34.0,-100.00,SSE,159,11.0,13.0,71,-99.99,,,-99.99,,2013-02-14 20:52:00,
2013-02-14 16:00:00,42.0,31.0,-100.00,SSE,151,8.0,13.0,64,-99.99,,,-99.99,,2013-02-14 21:00:00,
2013-02-14 16:22:00,42.0,31.0,-100.00,SSE,151,8.0,13.0,64,-99.99,,,-99.99,,2013-02-14 21:22:00,
2013-02-14 16:32:00,42.0,31.0,-100.00,SSE,151,8.0,13.0,64,-99.99,,,-99.99,,2013-02-14 21:32:00,
2013-02-14 16:42:00,42.0,31.0,-100.00,SSE,151,8.0,13.0,64,-99.99,,,-99.99,,2013-02-14 21:42:00,
2013-02-14 16:52:00,42.0,31.0,-100.00,SSE,151,8.0,13.0,64,-99.99,,,-99.99,,2013-02-14 21:52:00,
2013-02-14 17:00:00,42.0,32.0,-100.00,South,176,7.0,12.0,69,-99.99,,,-99.99,,2013-02-14 22:00:00,
2013-02-14 17:21:00,42.0,32.0,-100.00,South,176,7.0,12.0,69,-99.99,,,-99.99,,2013-02-14 22:21:00,
2013-02-14 17:32:00,42.0,32.0,-100.00,South,176,7.0,12.0,69,-99.99,,,-99.99,,2013-02-14 22:32:00,
2013-02-14 17:42:00,42.0,32.0,-100.00,South,176,7.0,12.0,69,-99.99,,,-99.99,,2013-02-14 22:42:00,
2013-02-14 17:52:00,42.0,32.0,-100.00,South,176,7.0,12.0,69,-99.99,,,-99.99,,2013-02-14 22:52:00,
2013-02-14 18:00:00,40.0,33.0,-100.00,South,188,4.0,11.0,78,-99.99,,,-99.99,,2013-02-14 23:00:00,
2013-02-14 18:22:00,40.0,33.0,-100.00,South,188,4.0,11.0,78,-99.99,,,-99.99,,2013-02-14 23:22:00,
2013-02-14 18:32:00,40.0,33.0,-100.00,South,188,4.0,11.0,78,-99.99,,,-99.99,,2013-02-14 23:32:00,
2013-02-14 18:42:00,40.0,33.0,-100.00,South,188,4.0,11.0,78,-99.99,,,-99.99,,2013-02-14 23:42:00,
2013-02-14 18:52:00,40.0,33.0,-100.00,South,188,4.0,11.0,78,-99.99,,,-99.99,,2013-02-14 23:52:00,
2013-02-14 20:00:00,38.0,34.0,-100.00,South,191,6.0,9.0,85,-99.99,,,-99.99,,2013-02-15 01:00:00,
2013-02-14 20:21:00,38.0,34.0,-100.00,South,191,6.0,9.0,85,-99.99,,,-99.99,,2013-02-15 01:21:00,
2013-02-14 20:32:00,38.0,34.0,-100.00,South,191,6.0,9.0,85,-99.99,,,-99.99,,2013-02-15 01:32:00,
2013-02-14 20:42:00,38.0,34.0,-100.00,South,191,6.0,9.0,85,-99.99,,,-99.99,,2013-02-15 01:42:00,
2013-02-14 20:52:00,38.0,34.0,-100.00,South,191,6.0,9.0,85,-99.99,,,-99.99,,2013-02-15 01:52:00,
2013-02-14 21:00:00,37.0,34.0,-100.00,SW,222,4.0,9.0,86,-99.99,,,-99.99,,2013-02-15 02:00:00,
2013-02-14 21:32:00,37.0,34.0,-100.00,SW,222,4.0,9.0,86,-99.99,,,-99.99,,2013-02-15 02:32:00,
2013-02-14 21:42:00,37.0,34.0,-100.00,SW,222,4.0,9.0,86,-99.99,,,-99.99,,2013-02-15 02:42:00,
2013-02-14 21:52:00,37.0,34.0,-100.00,SW,222,4.0,9.0,86,-99.99,,,-99.99,,2013-02-15 02:52:00,
2013-02-14 22:00:00,36.0,33.0,-100.00,SW,236,5.0,8.0,88,-99.99,,,-99.99,,2013-02-15 03:00:00,
2013-02-14 22:22:00,36.0,33.0,-100.00,SW,236,5.0,8.0,88,-99.99,,,-99.99,,2013-02-15 03:22:00,
2013-02-14 22:32:00,36.0,33.0,-100.00,SW,236,5.0,8.0,88,-99.99,,,-99.99,,2013-02-15 03:32:00,
2013-02-14 22:42:00,36.0,33.0,-100.00,SW,236,5.0,8.0,88,-99.99,,,-99.99,,2013-02-15 03:42:00,
2013-02-14 22:52:00,36.0,33.0,-100.00,SW,236,5.0,8.0,88,-99.99,,,-99.99,,2013-02-15 03:52:00,
2013-02-14 23:00:00,35.0,32.0,-100.00,WSW,245,5.0,7.0,86,-99.99,,,-99.99,,2013-02-15 04:00:00,
2013-02-14 23:22:00,35.0,32.0,-100.00,WSW,245,5.0,7.0,86,-99.99,,,-99.99,,2013-02-15 04:22:00,
2013-02-14 23:32:00,35.0,32.0,-100.00,WSW,245,5.0,7.0,86,-99.99,,,-99.99,,2013-02-15 04:32:00,
2013-02-14 23:42:00,35.0,32.0,-100.00,WSW,245,5.0,7.0,86,-99.99,,,-99.99,,2013-02-15 04:42:00,
2013-02-14 23:52:00,35.0,32.0,-100.00,WSW,245,5.0,7.0,86,-99.99,,,-99.99,,2013-02-15 04:52:00,